Time,TemperatureF,DewpointF,PressureIn,WindDirection,WindDirectionDegrees,WindSpeedMPH,WindSpeedGustMPH,Humidity,HourlyPrecipIn,Conditions,Clouds,dailyrainin,SolarRadiationWatts/m^2,SoftwareType,DateUTC
2013-08-20 00:00:00,68.0,63.0,-100.00,SSW,207,4.0,7.0,83,0.00,,,0.00,0.000000,,2013-08-20 05:00:00,
2013-08-20 00:43:00,68.0,63.0,-100.00,SSW,207,4.0,7.0,83,0.00,,,0.00,0.000000,,2013-08-20 05:43:00,
2013-08-20 00:52:00,68.0,63.0,-100.00,SSW,207,4.0,7.0,83,0.00,,,0.00,0.000000,,2013-08-20 05:52:00,
2013-08-20 01:00:00,68.0,63.0,-100.00,SSW,195,5.0,11.0,84,0.00,,,0.00,0.000000,,2013-08-20 06:00:00,
2013-08-20 01:42:00,68.0,63.0,-100.00,SSW,195,5.0,11.0,84,0.00,,,0.00,0.000000,,2013-08-20 06:42:00,
2013-08-20 01:52:00,68.0,63.0,-100.00,SSW,195,5.0,11.0,84,0.00,,,0.00,0.000000,,2013-08-20 06:52:00,
2013-08-20 02:00:00,67.0,63.0,-100.00,South,188,4.0,10.0,87,0.00,,,0.00,0.000000,,2013-08-20 07:00:00,
2013-08-20 02:42:00,67.0,63.0,-100.00,South,188,4.0,10.0,87,0.00,,,0.00,0.000000,,2013-08-20 07:42:00,
2013-08-20 02:52:00,67.0,63.0,-100.00,South,188,4.0,10.0,87,0.00,,,0.00,0.000000,,2013-08-20 07:52:00,
2013-08-20 03:00:00,66.0,63.0,-100.00,SSE,160,3.0,8.0,90,0.00,,,0.00,0.000000,,2013-08-20 08:00:00,
2013-08-20 03:42:00,66.0,63.0,-100.00,SSE,160,3.0,8.0,90,0.00,,,0.00,0.000000,,2013-08-20 08:42:00,
2013-08-20 03:52:00,66.0,63.0,-100.00,SSE,160,3.0,8.0,90,0.00,,,0.00,0.000000,,2013-08-20 08:52:00,
2013-08-20 04:00:00,65.0,63.0,-100.00,SSE,148,2.0,5.0,92,0.00,,,0.00,0.000000,,2013-08-20 09:00:00,
2013-08-20 04:42:00,65.0,63.0,-100.00,SSE,148,2.0,5.0,92,0.00,,,0.00,0.000000,,2013-08-20 09:42:00,
2013-08-20 04:53:00,65.0,63.0,-100.00,SSE,148,2.0,5.0,92,0.00,,,0.00,0.000000,,2013-08-20 09:53:00,
2013-08-20 05:00:00,63.0,61.0,-100.00,SE,139,2.0,4.0,94,0.00,,,0.00,0.000000,,2013-08-20 10:00:00,
2013-08-20 05:43:00,63.0,61.0,-100.00,SE,139,2.0,4.0,94,0.00,,,0.00,0.000000,,2013-08-20 10:43:00,
2013-08-20 05:52:00,63.0,61.0,-100.00,SE,139,2.0,4.0,94,0.00,,,0.00,0.000000,,2013-08-20 10:52:00,
2013-08-20 06:00:00,63.0,61.0,-100.00,SE,140,1.0,4.0,93,0.00,,,0.00,0.000000,,2013-08-20 11:00:00,
2013-08-20 06:42:00,63.0,61.0,-100.00,SE,140,1.0,4.0,93,0.00,,,0.00,0.000000,,2013-08-20 11:42:00,
2013-08-20 06:52:00,63.0,61.0,-100.00,SE,140,1.0,4.0,93,0.00,,,0.00,0.000000,,2013-08-20 11:52:00,
2013-08-20 07:00:00,64.0,62.0,-100.00,SSE,154,2.0,5.0,93,0.00,,,-99.99,30.000000,,2013-08-20 12:00:00,
2013-08-20 07:42:00,64.0,62.0,-100.00,SSE,154,2.0,5.0,93,0.00,,,-99.99,30.000000,,2013-08-20 12:42:00,
2013-08-20 07:52:00,64.0,62.0,-100.00,SSE,154,2.0,5.0,93,0.00,,,-99.99,30.000000,,2013-08-20 12:52:00,
2013-08-20 08:00:00,67.0,62.0,-100.00,South,178,3.0,7.0,84,0.00,,,0.00,177.000000,,2013-08-20 13:00:00,
2013-08-20 08:42:00,67.0,62.0,-100.00,South,178,3.0,7.0,84,0.00,,,0.00,177.000000,,2013-08-20 13:42:00,
2013-08-20 08:52:00,67.0,62.0,-100.00,South,178,3.0,7.0,84,0.00,,,0.00,177.000000,,2013-08-20 13:52:00,
2013-08-20 09:00:00,71.0,64.0,-100.00,South,175,4.0,10.0,78,0.00,,,0.00,373.000000,,2013-08-20 14:00:00,
2013-08-20 09:42:00,71.0,64.0,-100.00,South,175,4.0,10.0,78,0.00,,,0.00,373.000000,,2013-08-20 14:42:00,
2013-08-20 09:52:00,71.0,64.0,-100.00,South,175,4.0,10.0,78,0.00,,,0.00,373.000000,,2013-08-20 14:52:00,
2013-08-20 10:00:00,75.0,65.0,-100.00,South,190,5.0,12.0,71,0.00,,,0.00,570.000000,,2013-08-20 15:00:00,
2013-08-20 10:43:00,75.0,65.0,-100.00,South,190,5.0,12.0,71,0.00,,,0.00,570.000000,,2013-08-20 15:43:00,
2013-08-20 10:53:00,75.0,65.0,-100.00,South,190,5.0,12.0,71,0.00,,,0.00,570.000000,,2013-08-20 15:53:00,
2013-08-20 11:00:00,79.0,67.0,-100.00,South,174,5.0,10.0,67,0.00,,,0.00,724.000000,,2013-08-20 16:00:00,
2013-08-20 11:30:00,-999.0,-99.9,-100.00,South,174,5.0,10.0,67,0.00,,,0.00,724.000000,,2013-08-20 16:30:00,
2013-08-20 11:42:00,79.0,67.0,-100.00,South,174,5.0,10.0,67,0.00,,,0.00,724.000000,,2013-08-20 16:42:00,
2013-08-20 11:53:00,79.0,67.0,-100.00,South,174,5.0,10.0,67,0.00,,,0.00,724.000000,,2013-08-20 16:53:00,
2013-08-20 12:00:00,81.0,68.0,-100.00,SSW,197,6.0,13.0,64,0.00,,,0.00,828.000000,,2013-08-20 17:00:00,
2013-08-20 12:43:00,81.0,68.0,-100.00,SSW,197,6.0,13.0,64,0.00,,,0.00,828.000000,,2013-08-20 17:43:00,
2013-08-20 12:52:00,81.0,68.0,-100.00,SSW,197,6.0,13.0,64,0.00,,,0.00,828.000000,,2013-08-20 17:52:00,
2013-08-20 13:00:00,83.0,68.0,-100.00,South,183,7.0,15.0,61,0.00,,,0.00,876.000000,,2013-08-20 18:00:00,
2013-08-20 13:43:00,83.0,68.0,-100.00,South,183,7.0,15.0,61,0.00,,,0.00,876.000000,,2013-08-20 18:43:00,
2013-08-20 13:52:00,83.0,68.0,-100.00,South,183,7.0,15.0,61,0.00,,,0.00,876.000000,,2013-08-20 18:52:00,
2013-08-20 14:00:00,86.0,69.0,-100.00,South,187,7.0,16.0,57,0.00,,,0.00,901.000000,,2013-08-20 19:00:00,
2013-08-20 14:42:00,86.0,69.0,-100.00,South,187,7.0,16.0,57,0.00,,,0.00,901.000000,,2013-08-20 19:42:00,
2013-08-20 14:53:00,86.0,69.0,-100.00,South,187,7.0,16.0,57,0.00,,,0.00,901.000000,,2013-08-20 19:53:00,
2013-08-20 15:00:00,85.0,68.0,-100.00,SSW,195,7.0,17.0,57,0.00,,,0.00,674.000000,,2013-08-20 20:00:00,
2013-08-20 15:22:00,85.0,68.0,-100.00,SSW,195,7.0,17.0,57,0.00,,,0.00,674.000000,,2013-08-20 20:22:00,
2013-08-20 15:32:00,85.0,68.0,-100.00,SSW,195,7.0,17.0,57,0.00,,,0.00,674.000000,,2013-08-20 20:32:00,
2013-08-20 15:42:00,85.0,68.0,-100.00,SSW,195,7.0,17.0,57,0.00,,,0.00,674.000000,,2013-08-20 20:42:00,
2013-08-20 15:52:00,85.0,68.0,-100.00,SSW,195,7.0,17.0,57,0.00,,,0.00,674.000000,,2013-08-20 20:52:00,
2013-08-20 16:00:00,86.0,68.0,-100.00,SSW,194,6.0,15.0,56,0.00,,,0.00,530.000000,,2013-08-20 21:00:00,
2013-08-20 16:44:00,86.0,68.0,-100.00,SSW,194,6.0,15.0,56,0.00,,,0.00,530.000000,,2013-08-20 21:44:00,
2013-08-20 16:55:00,86.0,68.0,-100.00,SSW,194,6.0,15.0,56,0.00,,,0.00,530.000000,,2013-08-20 21:55:00,
2013-08-20 17:00:00,86.0,68.0,-100.00,SSW,199,6.0,16.0,56,0.00,,,0.00,440.000000,,2013-08-20 22:00:00,
2013-08-20 17:42:00,86.0,68.0,-100.00,SSW,199,6.0,16.0,56,0.00,,,0.00,440.000000,,2013-08-20 22:42:00,
2013-08-20 17:53:00,86.0,68.0,-100.00,SSW,199,6.0,16.0,56,0.00,,,0.00,440.000000,,2013-08-20 22:53:00,
2013-08-20 18:00:00,85.0,69.0,-100.00,South,188,5.0,13.0,58,0.00,,,0.00,230.000000,,2013-08-20 23:00:00,
2013-08-20 18:43:00,85.0,69.0,-100.00,South,188,5.0,13.0,58,0.00,,,0.00,230.000000,,2013-08-20 23:43:00,
2013-08-20 18:53:00,85.0,69.0,-100.00,South,188,5.0,13.0,58,0.00,,,0.00,230.000000,,2013-08-20 23:53:00,
2013-08-20 19:00:00,81.0,68.0,-100.00,South,188,6.0,12.0,64,0.00,,,0.00,161.000000,,2013-08-21 00:00:00,
2013-08-20 19:23:00,81.0,68.0,-100.00,South,188,6.0,12.0,64,0.00,,,0.00,161.000000,,2013-08-21 00:23:00,
2013-08-20 19:32:00,81.0,68.0,-100.00,South,188,6.0,12.0,64,0.00,,,0.00,161.000000,,2013-08-21 00:32:00,
2013-08-20 19:42:00,81.0,68.0,-100.00,South,188,6.0,12.0,64,0.00,,,0.00,161.000000,,2013-08-21 00:42:00,
2013-08-20 19:52:00,81.0,68.0,-100.00,South,188,6.0,12.0,64,0.00,,,0.00,161.000000,,2013-08-21 00:52:00,
2013-08-20 20:00:00,79.0,68.0,-100.00,South,185,4.0,12.0,69,0.00,,,0.00,42.000000,,2013-08-21 01:00:00,
2013-08-20 20:42:00,79.0,68.0,-100.00,South,185,4.0,12.0,69,0.00,,,0.00,42.000000,,2013-08-21 01:42:00,
2013-08-20 20:52:00,79.0,68.0,-100.00,South,185,4.0,12.0,69,0.00,,,0.00,42.000000,,2013-08-21 01:52:00,
2013-08-20 21:00:00,77.0,68.0,-100.00,South,170,4.0,10.0,75,0.00,,,0.00,1.000000,,2013-08-21 02:00:00,
2013-08-20 21:42:00,77.0,68.0,-100.00,South,170,4.0,10.0,75,0.00,,,0.00,1.000000,,2013-08-21 02:42:00,
2013-08-20 21:52:00,77.0,68.0,-100.00,South,170,4.0,10.0,75,0.00,,,0.00,1.000000,,2013-08-21 02:52:00,
2013-08-20 22:00:00,75.0,68.0,-100.00,South,188,5.0,11.0,78,0.00,,,0.00,0.000000,,2013-08-21 03:00:00,
2013-08-20 22:44:00,75.0,68.0,-100.00,South,188,5.0,11.0,78,0.00,,,0.00,0.000000,,2013-08-21 03:44:00,
2013-08-20 22:55:00,75.0,68.0,-100.00,South,188,5.0,11.0,78,0.00,,,0.00,0.000000,,2013-08-21 03:55:00,
2013-08-20 23:00:00,74.0,68.0,-100.00,South,175,4.0,10.0,81,0.00,,,0.00,0.000000,,2013-08-21 04:00:00,
2013-08-20 23:24:00,74.0,68.0,-100.00,South,175,4.0,10.0,81,0.00,,,0.00,0.000000,,2013-08-21 04:24:00,
2013-08-20 23:33:00,74.0,68.0,-100.00,South,175,4.0,10.0,81,0.00,,,0.00,0.000000,,2013-08-21 04:33:00,
2013-08-20 23:44:00,74.0,68.0,-100.00,South,175,4.0,10.0,81,0.00,,,0.00,0.000000,,2013-08-21 04:44:00,
2013-08-20 23:54:00,74.0,68.0,-100.00,South,175,4.0,10.0,81,0.00,,,0.00,0.000000,,2013-08-21 04:54:00,